Time;durP1;ratioP1;P1;durP2;ratioP2;P2;SDS_P1;SDS_P2;PMS_P1;PMS_P2;Temp;Humidity;BMP_temperature;BMP_pressure;BME280_temperature;BME280_humidity;BME280_pressure;Samples;Min_cycle;Max_cycle;Signal;HPM_P1;HPM_P2
2023/05/05 00:00:50;;;;;;;;;;;14.10;88.80;;;;;;4937775;29;19911;-96
2023/05/05 00:03:17;;;;;;;;;;;14.10;89.10;;;;;;4937663;29;19917;-96
2023/05/05 00:05:42;;;;;;;;;;;14.10;89.10;;;;;;4937467;29;19961;-96
2023/05/05 00:08:08;;;;;;;;;;;14.00;89.10;;;;;;4937715;29;19946;-96
2023/05/05 00:10:33;;;;;;;;;;;13.90;89.40;;;;;;4937641;29;19911;-96
2023/05/05 00:12:59;;;;;;;;;;;13.90;89.60;;;;;;4937550;29;19922;-95
2023/05/05 00:15:26;;;;;;;;;;;13.80;90.00;;;;;;4939088;29;19915;-96
2023/05/05 00:17:51;;;;;;;;;;;13.80;90.10;;;;;;4937444;29;20005;-95
2023/05/05 00:20:17;;;;;;;;;;;13.80;90.20;;;;;;4938321;29;20022;-96
2023/05/05 00:22:43;;;;;;;;;;;13.80;90.50;;;;;;4937294;29;19926;-95
2023/05/05 00:25:08;;;;;;;;;;;13.60;90.20;;;;;;4937410;29;19914;-96
2023/05/05 00:27:34;;;;;;;;;;;13.60;90.70;;;;;;4937360;29;20299;-95
2023/05/05 00:30:00;;;;;;;;;;;13.60;90.40;;;;;;4937333;29;20028;-96
2023/05/05 00:32:26;;;;;;;;;;;13.70;90.60;;;;;;4937249;29;20283;-96
2023/05/05 00:34:52;;;;;;;;;;;13.70;90.30;;;;;;4938696;29;19974;-96
2023/05/05 00:37:17;;;;;;;;;;;13.70;90.20;;;;;;4937144;29;19915;-96
2023/05/05 00:39:43;;;;;;;;;;;13.80;90.30;;;;;;4938805;29;19911;-95
2023/05/05 00:42:09;;;;;;;;;;;13.70;90.30;;;;;;4936976;29;20306;-96
2023/05/05 00:44:36;;;;;;;;;;;13.80;90.90;;;;;;4936755;29;20375;-96
2023/05/05 00:47:02;;;;;;;;;;;13.70;90.70;;;;;;4936962;29;20001;-95
2023/05/05 00:49:28;;;;;;;;;;;13.60;91.00;;;;;;4936999;29;19957;-96
2023/05/05 00:51:55;;;;;;;;;;;13.50;91.50;;;;;;4936918;29;19953;-96
2023/05/05 00:54:20;;;;;;;;;;;13.50;91.10;;;;;;4936763;29;19926;-96
2023/05/05 00:56:47;;;;;;;;;;;13.40;91.20;;;;;;4936710;29;20017;-95
2023/05/05 00:59:13;;;;;;;;;;;13.50;91.10;;;;;;4936766;29;19966;-96
2023/05/05 01:01:38;;;;;;;;;;;13.50;91.00;;;;;;4936000;29;19915;-96
2023/05/05 01:04:04;;;;;;;;;;;13.40;90.90;;;;;;4938238;29;19935;-96
2023/05/05 01:06:30;;;;;;;;;;;13.40;91.00;;;;;;4936591;29;19918;-96
2023/05/05 01:08:56;;;;;;;;;;;13.40;91.20;;;;;;4938405;29;19918;-96
2023/05/05 01:11:29;;;;;;;;;;;13.40;91.40;;;;;;4937775;29;19953;-96
2023/05/05 01:14:07;;;;;;;;;;;13.40;91.30;;;;;;4936475;29;20386;-95
2023/05/05 01:16:33;;;;;;;;;;;13.40;91.10;;;;;;4936448;29;19911;-96
2023/05/05 01:19:02;;;;;;;;;;;13.30;91.00;;;;;;4936286;29;20267;-96
2023/05/05 01:21:33;;;;;;;;;;;13.30;90.90;;;;;;4936325;29;19911;-96
2023/05/05 01:24:05;;;;;;;;;;;13.30;91.00;;;;;;4954636;29;20260;-96
2023/05/05 01:26:34;;;;;;;;;;;13.40;90.60;;;;;;4939364;29;19952;-96
2023/05/05 01:29:15;;;;;;;;;;;13.40;90.20;;;;;;4957061;29;19910;-96
2023/05/05 01:31:50;;;;;;;;;;;13.40;89.70;;;;;;4956548;29;19954;-96
2023/05/05 01:34:18;;;;;;;;;;;13.30;89.20;;;;;;4939327;29;20353;-96
2023/05/05 01:36:45;;;;;;;;;;;13.30;89.30;;;;;;4939155;29;19920;-96
2023/05/05 01:39:13;;;;;;;;;;;13.20;89.50;;;;;;4939185;29;19910;-96
2023/05/05 01:41:41;;;;;;;;;;;13.20;89.80;;;;;;4939029;29;20500;-95
2023/05/05 01:44:09;;;;;;;;;;;13.20;90.10;;;;;;4956393;28;19910;-96
2023/05/05 01:46:35;;;;;;;;;;;13.00;90.00;;;;;;4956575;29;19911;-96
2023/05/05 01:49:01;;;;;;;;;;;13.00;90.50;;;;;;4956269;29;19957;-96
2023/05/05 01:51:27;;;;;;;;;;;13.10;90.50;;;;;;4939036;29;19962;-95
2023/05/05 01:53:55;;;;;;;;;;;13.10;91.10;;;;;;4956741;29;19910;-96
2023/05/05 01:56:22;;;;;;;;;;;13.00;91.00;;;;;;4938912;29;19932;-96
2023/05/05 01:58:48;;;;;;;;;;;13.10;91.10;;;;;;4938778;29;19918;-96
2023/05/05 02:01:14;;;;;;;;;;;13.00;91.50;;;;;;4938828;29;19917;-96
2023/05/05 02:03:40;;;;;;;;;;;13.00;91.50;;;;;;4938849;29;20259;-96
2023/05/05 02:06:07;;;;;;;;;;;13.00;91.40;;;;;;4938742;29;19961;-96
2023/05/05 02:08:35;;;;;;;;;;;13.00;91.20;;;;;;4938861;29;19914;-96
2023/05/05 02:11:01;;;;;;;;;;;13.10;90.70;;;;;;4956017;29;20433;-96
2023/05/05 02:13:29;;;;;;;;;;;13.10;90.60;;;;;;4937988;29;19914;-96
2023/05/05 02:15:54;;;;;;;;;;;13.10;90.20;;;;;;4938662;29;20063;-96
2023/05/05 02:18:21;;;;;;;;;;;13.10;90.10;;;;;;4938636;29;20044;-96
2023/05/05 02:20:47;;;;;;;;;;;13.10;90.60;;;;;;4956116;29;19918;-96
2023/05/05 02:23:13;;;;;;;;;;;13.10;90.50;;;;;;4938418;29;19922;-96
2023/05/05 02:25:46;;;;;;;;;;;13.00;90.60;;;;;;4956301;29;19910;-96
2023/05/05 02:28:15;;;;;;;;;;;12.90;90.50;;;;;;4955708;29;20351;-96
2023/05/05 02:30:42;;;;;;;;;;;12.90;90.80;;;;;;4956016;29;20006;-96
2023/05/05 02:33:09;;;;;;;;;;;12.90;90.70;;;;;;4938447;29;19910;-96
2023/05/05 02:35:36;;;;;;;;;;;13.00;90.80;;;;;;4938532;29;19911;-96
2023/05/05 02:38:04;;;;;;;;;;;13.00;90.40;;;;;;4938354;29;19914;-96
2023/05/05 02:40:31;;;;;;;;;;;13.00;89.80;;;;;;4938321;29;19961;-96
2023/05/05 02:42:58;;;;;;;;;;;13.00;90.10;;;;;;4938329;29;19914;-96
2023/05/05 02:45:24;;;;;;;;;;;12.90;90.30;;;;;;4956164;29;20410;-96
2023/05/05 02:47:49;;;;;;;;;;;12.90;90.30;;;;;;4938393;29;19915;-96
2023/05/05 02:50:15;;;;;;;;;;;12.90;90.30;;;;;;4938294;29;19911;-96
2023/05/05 02:52:41;;;;;;;;;;;12.80;90.30;;;;;;4955743;29;19914;-96
2023/05/05 02:55:07;;;;;;;;;;;12.90;89.90;;;;;;4955517;29;19917;-96
2023/05/05 02:57:36;;;;;;;;;;;12.90;89.90;;;;;;4955946;29;20271;-95
2023/05/05 03:00:09;;;;;;;;;;;12.90;89.60;;;;;;4955409;29;19910;-95
2023/05/05 03:02:54;;;;;;;;;;;12.80;89.60;;;;;;4955675;29;19911;-96
2023/05/05 03:05:22;;;;;;;;;;;12.80;89.70;;;;;;4935008;29;20302;-96
2023/05/05 03:08:23;;;;;;;;;;;12.80;89.30;;;;;;4938112;29;19934;-96
2023/05/05 03:10:56;;;;;;;;;;;12.70;89.70;;;;;;4915486;29;19911;-96
2023/05/05 03:13:23;;;;;;;;;;;12.70;89.50;;;;;;4932314;29;20382;-96
2023/05/05 03:15:51;;;;;;;;;;;12.60;89.30;;;;;;4955559;29;19911;-96
2023/05/05 03:18:18;;;;;;;;;;;12.40;90.20;;;;;;4938034;29;19915;-96
2023/05/05 03:20:44;;;;;;;;;;;12.40;90.30;;;;;;4955561;29;19937;-96
2023/05/05 03:23:12;;;;;;;;;;;12.30;90.30;;;;;;4955117;29;19923;-96
2023/05/05 03:25:44;;;;;;;;;;;12.40;90.10;;;;;;4941099;29;19917;-96
2023/05/05 03:28:10;;;;;;;;;;;12.40;90.00;;;;;;4959049;29;19918;-96
2023/05/05 03:30:36;;;;;;;;;;;12.40;90.00;;;;;;4958821;29;19917;-96
2023/05/05 03:33:01;;;;;;;;;;;12.40;90.20;;;;;;4941446;29;19910;-96
2023/05/05 03:35:27;;;;;;;;;;;12.40;90.70;;;;;;4941424;29;19990;-96
2023/05/05 03:37:54;;;;;;;;;;;12.20;90.90;;;;;;4958821;29;19915;-96
2023/05/05 03:40:20;;;;;;;;;;;12.20;91.30;;;;;;4941307;29;19978;-95
2023/05/05 03:42:45;;;;;;;;;;;12.20;91.20;;;;;;4941277;29;19910;-96
2023/05/05 03:45:11;;;;;;;;;;;12.20;91.30;;;;;;4958704;28;19910;-96
2023/05/05 03:47:37;;;;;;;;;;;12.10;91.30;;;;;;4958717;29;20278;-94
2023/05/05 03:50:02;;;;;;;;;;;12.10;91.20;;;;;;4958433;29;19990;-96
2023/05/05 03:52:28;;;;;;;;;;;12.10;91.10;;;;;;4958662;28;19945;-96
2023/05/05 03:54:53;;;;;;;;;;;12.00;91.60;;;;;;4958324;29;19911;-96
2023/05/05 03:57:19;;;;;;;;;;;12.10;91.90;;;;;;4941081;29;19918;-96
2023/05/05 03:59:45;;;;;;;;;;;12.10;91.60;;;;;;4958573;29;19911;-96
2023/05/05 04:02:10;;;;;;;;;;;12.10;91.40;;;;;;4941000;29;19918;-96
2023/05/05 04:04:36;;;;;;;;;;;12.10;91.40;;;;;;4958435;29;20386;-96
2023/05/05 04:07:01;;;;;;;;;;;12.10;91.50;;;;;;4940874;29;19918;-96
2023/05/05 04:09:27;;;;;;;;;;;12.10;91.90;;;;;;4958428;29;19911;-96
2023/05/05 04:11:52;;;;;;;;;;;12.20;91.60;;;;;;4940755;29;19950;-96
2023/05/05 04:14:18;;;;;;;;;;;12.20;91.40;;;;;;4940791;29;20296;-96
2023/05/05 04:16:43;;;;;;;;;;;12.10;91.20;;;;;;4940721;29;19910;-96
2023/05/05 04:19:11;;;;;;;;;;;12.20;91.30;;;;;;4940643;29;19918;-95
2023/05/05 04:21:37;;;;;;;;;;;12.20;90.90;;;;;;4958121;29;19933;-96
2023/05/05 04:24:03;;;;;;;;;;;12.20;90.80;;;;;;4965443;23;20442;-96
2023/05/05 04:26:28;;;;;;;;;;;12.20;90.60;;;;;;4958047;29;19973;-96
2023/05/05 04:28:54;;;;;;;;;;;12.20;90.80;;;;;;4957918;29;20286;-96
2023/05/05 04:31:20;;;;;;;;;;;12.10;91.00;;;;;;4940478;29;19969;-96
2023/05/05 04:33:45;;;;;;;;;;;12.10;91.00;;;;;;4940373;29;19911;-95
2023/05/05 04:36:11;;;;;;;;;;;12.00;91.10;;;;;;4939588;29;19918;-96
2023/05/05 04:38:36;;;;;;;;;;;11.90;91.40;;;;;;4940224;29;19914;-96
2023/05/05 04:41:05;;;;;;;;;;;11.90;91.70;;;;;;4940098;29;19917;-96
2023/05/05 04:43:31;;;;;;;;;;;12.00;91.90;;;;;;4953249;29;19911;-96
2023/05/05 04:45:56;;;;;;;;;;;12.10;91.90;;;;;;4938474;29;19917;-96
2023/05/05 04:48:22;;;;;;;;;;;12.10;92.10;;;;;;4921044;29;20013;-96
2023/05/05 04:50:47;;;;;;;;;;;12.10;92.20;;;;;;4921491;29;19917;-96
2023/05/05 04:53:13;;;;;;;;;;;12.10;92.40;;;;;;4921077;29;19917;-95
2023/05/05 04:55:39;;;;;;;;;;;12.10;92.60;;;;;;4920960;29;20264;-96
2023/05/05 04:58:04;;;;;;;;;;;12.20;92.80;;;;;;4920931;29;19973;-96
2023/05/05 05:00:30;;;;;;;;;;;12.20;93.00;;;;;;4938259;29;20405;-96
2023/05/05 05:02:56;;;;;;;;;;;12.40;93.20;;;;;;4938008;29;19970;-96
2023/05/05 05:05:22;;;;;;;;;;;12.40;93.20;;;;;;4920776;29;20283;-96
2023/05/05 05:07:48;;;;;;;;;;;12.60;93.20;;;;;;4938176;29;19911;-96
2023/05/05 05:10:13;;;;;;;;;;;12.60;93.10;;;;;;4937806;29;19918;-96
2023/05/05 05:12:39;;;;;;;;;;;12.80;92.80;;;;;;4920776;29;19926;-96
2023/05/05 05:15:05;;;;;;;;;;;12.90;92.40;;;;;;4920674;29;19911;-96
2023/05/05 05:17:31;;;;;;;;;;;13.00;92.10;;;;;;4920558;29;19937;-96
2023/05/05 05:20:00;;;;;;;;;;;13.20;91.80;;;;;;4937742;29;20299;-96
2023/05/05 05:22:27;;;;;;;;;;;13.30;91.70;;;;;;4937462;29;19975;-96
2023/05/05 05:24:52;;;;;;;;;;;13.40;91.60;;;;;;4920401;29;19911;-96
2023/05/05 05:27:21;;;;;;;;;;;13.60;91.40;;;;;;4920447;29;19911;-96
2023/05/05 05:29:47;;;;;;;;;;;13.70;91.20;;;;;;4937002;29;19918;-96
2023/05/05 05:32:12;;;;;;;;;;;13.80;91.00;;;;;;4920542;29;19911;-96
2023/05/05 05:34:38;;;;;;;;;;;13.90;90.90;;;;;;4937052;29;20423;-96
2023/05/05 05:37:03;;;;;;;;;;;13.90;90.90;;;;;;4919883;29;19958;-96
2023/05/05 05:39:29;;;;;;;;;;;14.00;90.70;;;;;;4920076;29;19910;-96
2023/05/05 05:41:54;;;;;;;;;;;14.10;90.70;;;;;;4919934;29;19945;-96
2023/05/05 05:44:20;;;;;;;;;;;14.20;90.60;;;;;;4919909;29;19958;-96
2023/05/05 05:46:45;;;;;;;;;;;14.20;90.30;;;;;;4919867;29;19933;-96
2023/05/05 05:49:15;;;;;;;;;;;14.30;90.00;;;;;;4919876;29;19966;-95
2023/05/05 05:51:40;;;;;;;;;;;14.40;89.70;;;;;;4920068;29;19915;-95
2023/05/05 05:54:06;;;;;;;;;;;14.50;89.40;;;;;;4920009;29;19911;-96
2023/05/05 05:56:31;;;;;;;;;;;14.60;88.90;;;;;;4937273;29;20252;-96
2023/05/05 05:58:57;;;;;;;;;;;14.60;88.50;;;;;;4919723;29;20002;-96
2023/05/05 06:01:23;;;;;;;;;;;14.60;88.50;;;;;;4919886;29;20286;-95
2023/05/05 06:03:48;;;;;;;;;;;14.60;88.70;;;;;;4919619;29;19953;-95
2023/05/05 06:06:14;;;;;;;;;;;14.70;88.90;;;;;;4936764;29;19911;-96
2023/05/05 06:08:39;;;;;;;;;;;14.80;88.90;;;;;;4937122;29;20416;-96
2023/05/05 06:11:05;;;;;;;;;;;14.90;88.50;;;;;;4919760;29;20326;-96
2023/05/05 06:13:31;;;;;;;;;;;14.90;88.10;;;;;;4936944;29;19918;-96
2023/05/05 06:15:56;;;;;;;;;;;15.00;88.00;;;;;;4919579;29;19915;-96
2023/05/05 06:18:22;;;;;;;;;;;15.10;87.60;;;;;;4919586;29;19914;-96
2023/05/05 06:20:48;;;;;;;;;;;15.10;86.90;;;;;;4936738;29;19911;-96
2023/05/05 06:23:13;;;;;;;;;;;15.20;86.90;;;;;;4919274;29;19962;-95
2023/05/05 06:25:39;;;;;;;;;;;15.30;86.70;;;;;;4919589;29;19997;-96
2023/05/05 06:28:04;;;;;;;;;;;15.30;86.50;;;;;;4919505;29;19911;-96
2023/05/05 06:30:30;;;;;;;;;;;15.50;86.10;;;;;;4919375;29;19915;-96
2023/05/05 06:32:56;;;;;;;;;;;15.60;85.30;;;;;;4919321;29;19915;-96
2023/05/05 06:35:21;;;;;;;;;;;15.70;85.00;;;;;;4919398;29;20001;-96
2023/05/05 06:37:47;;;;;;;;;;;15.80;84.90;;;;;;4936495;29;19962;-96
2023/05/05 06:40:13;;;;;;;;;;;15.90;84.50;;;;;;4919231;29;19911;-96
2023/05/05 06:42:38;;;;;;;;;;;16.00;84.00;;;;;;4919226;29;20347;-96
2023/05/05 06:45:04;;;;;;;;;;;16.10;83.60;;;;;;4919131;29;19918;-96
2023/05/05 06:47:30;;;;;;;;;;;16.10;83.50;;;;;;4919182;29;19922;-96
2023/05/05 06:49:55;;;;;;;;;;;16.30;83.20;;;;;;4919170;29;19963;-96
2023/05/05 06:52:21;;;;;;;;;;;16.30;82.40;;;;;;4936486;29;19911;-96
2023/05/05 06:54:47;;;;;;;;;;;16.30;82.10;;;;;;4936339;29;20005;-96
2023/05/05 06:57:13;;;;;;;;;;;16.40;81.90;;;;;;4919001;29;19965;-96
2023/05/05 06:59:38;;;;;;;;;;;16.40;81.60;;;;;;4920833;29;19945;-96
2023/05/05 07:02:04;;;;;;;;;;;16.60;81.80;;;;;;4940102;29;20286;-96
2023/05/05 07:04:30;;;;;;;;;;;16.60;81.90;;;;;;4922833;29;20498;-96
2023/05/05 07:06:57;;;;;;;;;;;16.70;81.00;;;;;;4939920;29;19918;-96
2023/05/05 07:09:22;;;;;;;;;;;16.70;80.70;;;;;;4939834;29;19921;-96
2023/05/05 07:11:48;;;;;;;;;;;16.80;80.60;;;;;;4922864;29;20034;-96
2023/05/05 07:14:14;;;;;;;;;;;16.80;80.70;;;;;;4922952;29;19997;-96
2023/05/05 07:16:40;;;;;;;;;;;16.90;80.80;;;;;;4922651;29;19921;-96
2023/05/05 07:19:05;;;;;;;;;;;17.00;79.70;;;;;;4922479;29;19922;-96
2023/05/05 07:21:34;;;;;;;;;;;17.00;79.00;;;;;;4922587;29;19934;-96
2023/05/05 07:24:01;;;;;;;;;;;17.10;79.40;;;;;;4922119;29;20463;-96
2023/05/05 07:26:27;;;;;;;;;;;17.30;79.90;;;;;;4922463;29;19914;-96
2023/05/05 07:28:54;;;;;;;;;;;17.30;78.90;;;;;;4922503;29;20268;-96
2023/05/05 07:31:20;;;;;;;;;;;17.50;78.90;;;;;;4922497;29;19985;-96
2023/05/05 07:33:46;;;;;;;;;;;17.50;78.50;;;;;;4922341;29;20327;-96
2023/05/05 07:36:12;;;;;;;;;;;17.60;78.20;;;;;;4922272;29;19966;-96
2023/05/05 07:38:40;;;;;;;;;;;17.70;77.00;;;;;;4939306;29;19915;-96
2023/05/05 07:41:06;;;;;;;;;;;17.80;77.30;;;;;;4939420;29;19999;-96
2023/05/05 07:43:31;;;;;;;;;;;17.80;77.70;;;;;;4922074;29;19950;-96
2023/05/05 07:45:57;;;;;;;;;;;17.90;77.40;;;;;;4939430;29;19910;-96
2023/05/05 07:48:23;;;;;;;;;;;17.90;77.40;;;;;;4939513;29;19911;-96
2023/05/05 07:50:48;;;;;;;;;;;18.00;76.90;;;;;;4939242;29;19933;-96
2023/05/05 07:53:14;;;;;;;;;;;18.00;76.60;;;;;;4921891;29;19911;-96
2023/05/05 07:55:40;;;;;;;;;;;18.10;76.90;;;;;;4922066;29;19921;-96
2023/05/05 07:58:05;;;;;;;;;;;18.20;77.90;;;;;;4938700;29;20374;-96
2023/05/05 08:00:31;;;;;;;;;;;18.30;78.00;;;;;;4921852;29;19918;-96
2023/05/05 08:02:57;;;;;;;;;;;18.30;78.10;;;;;;4922013;29;20382;-96
2023/05/05 08:05:22;;;;;;;;;;;18.40;77.70;;;;;;4939006;29;20435;-96
2023/05/05 08:07:48;;;;;;;;;;;18.50;77.60;;;;;;4921828;29;20363;-96
2023/05/05 08:10:13;;;;;;;;;;;18.60;77.40;;;;;;4921043;29;19934;-96
2023/05/05 08:12:39;;;;;;;;;;;18.70;76.80;;;;;;4938504;29;19993;-96
2023/05/05 08:15:05;;;;;;;;;;;18.70;76.30;;;;;;4938716;29;19914;-96
2023/05/05 08:17:50;;;;;;;;;;;18.80;76.40;;;;;;4938670;29;19925;-96
2023/05/05 08:20:16;;;;;;;;;;;18.80;76.60;;;;;;4938687;29;20002;-96
2023/05/05 08:22:41;;;;;;;;;;;18.90;76.10;;;;;;4921471;29;20014;-96
2023/05/05 08:25:09;;;;;;;;;;;19.00;76.70;;;;;;4921581;29;19954;-96
2023/05/05 08:27:36;;;;;;;;;;;19.00;75.30;;;;;;4921323;29;20367;-96
2023/05/05 08:30:02;;;;;;;;;;;19.00;74.80;;;;;;4938444;29;20282;-96
2023/05/05 08:32:28;;;;;;;;;;;19.00;73.30;;;;;;4921326;29;19966;-96
2023/05/05 08:34:53;;;;;;;;;;;19.10;73.90;;;;;;4921693;29;19911;-96
2023/05/05 08:37:19;;;;;;;;;;;19.20;74.20;;;;;;4921312;29;19915;-96
2023/05/05 08:39:45;;;;;;;;;;;19.30;72.30;;;;;;4921181;29;20290;-96
2023/05/05 08:42:10;;;;;;;;;;;19.30;70.90;;;;;;4921227;29;19966;-96
2023/05/05 08:44:36;;;;;;;;;;;19.30;71.40;;;;;;4921086;29;19911;-96
2023/05/05 08:47:02;;;;;;;;;;;19.40;70.60;;;;;;4922278;29;19915;-96
2023/05/05 08:49:30;;;;;;;;;;;19.40;70.90;;;;;;4938233;29;20378;-96
2023/05/05 08:51:57;;;;;;;;;;;19.50;70.50;;;;;;4921534;29;20344;-96
2023/05/05 08:54:25;;;;;;;;;;;19.60;72.00;;;;;;4920939;29;19911;-96
2023/05/05 08:56:51;;;;;;;;;;;19.70;72.80;;;;;;4921006;29;20355;-96
2023/05/05 08:59:17;;;;;;;;;;;19.80;71.40;;;;;;4920852;29;19950;-96
2023/05/05 09:01:43;;;;;;;;;;;19.90;72.90;;;;;;4920846;29;19954;-96
2023/05/05 09:04:09;;;;;;;;;;;20.00;69.80;;;;;;4920761;29;19911;-96
2023/05/05 09:06:36;;;;;;;;;;;20.10;69.70;;;;;;4921102;29;19915;-96
2023/05/05 09:09:01;;;;;;;;;;;20.20;70.70;;;;;;4932694;29;20001;-96
2023/05/05 09:11:27;;;;;;;;;;;20.30;71.50;;;;;;4925075;29;19962;-96
2023/05/05 09:13:54;;;;;;;;;;;20.30;70.00;;;;;;4924706;29;19910;-96
2023/05/05 09:16:20;;;;;;;;;;;20.40;70.30;;;;;;4925614;29;19918;-96
2023/05/05 09:18:46;;;;;;;;;;;20.40;70.30;;;;;;4924472;29;19918;-96
2023/05/05 09:21:20;;;;;;;;;;;20.50;71.40;;;;;;4925146;29;19911;-96
2023/05/05 09:24:04;;;;;;;;;;;20.50;72.10;;;;;;4925657;29;19922;-96
2023/05/05 09:26:34;;;;;;;;;;;20.50;70.90;;;;;;4925415;29;19911;-96
2023/05/05 09:29:01;;;;;;;;;;;20.60;70.70;;;;;;4941309;29;20381;-96
2023/05/05 09:31:28;;;;;;;;;;;20.80;69.90;;;;;;4941135;29;19910;-96
2023/05/05 09:33:55;;;;;;;;;;;20.80;69.30;;;;;;4931816;29;19895;-96
2023/05/05 09:36:40;;;;;;;;;;;20.80;71.40;;;;;;4945929;29;19915;-96
2023/05/05 09:39:08;;;;;;;;;;;20.80;69.10;;;;;;4931547;29;19915;-96
2023/05/05 09:41:38;;;;;;;;;;;20.80;68.10;;;;;;4934737;29;19918;-96
2023/05/05 09:44:04;;;;;;;;;;;20.80;67.20;;;;;;4936286;29;19911;-96
2023/05/05 09:46:31;;;;;;;;;;;20.90;67.90;;;;;;4938883;29;19910;-96
2023/05/05 09:49:18;;;;;;;;;;;20.90;67.10;;;;;;4939895;29;19915;-96
2023/05/05 09:51:47;;;;;;;;;;;21.00;70.00;;;;;;4939657;29;19946;-96
2023/05/05 09:54:23;;;;;;;;;;;21.00;66.80;;;;;;4939305;29;19911;-96
2023/05/05 09:56:51;;;;;;;;;;;21.10;68.50;;;;;;4940061;29;19917;-96
2023/05/05 09:59:17;;;;;;;;;;;21.20;67.60;;;;;;4957578;29;19899;-96
2023/05/05 10:01:47;;;;;;;;;;;21.30;67.70;;;;;;4940288;29;19911;-96
2023/05/05 10:04:27;;;;;;;;;;;21.30;66.30;;;;;;4941041;29;19902;-96
2023/05/05 10:06:57;;;;;;;;;;;21.40;66.70;;;;;;4941490;29;19895;-96
2023/05/05 10:09:31;;;;;;;;;;;21.40;64.70;;;;;;4941500;29;19911;-96
2023/05/05 10:12:06;;;;;;;;;;;21.50;68.20;;;;;;4941008;29;19965;-96
2023/05/05 10:14:36;;;;;;;;;;;21.60;63.20;;;;;;4940020;29;19911;-96
2023/05/05 10:17:04;;;;;;;;;;;21.60;64.20;;;;;;4940298;29;19917;-96
2023/05/05 10:19:33;;;;;;;;;;;21.60;62.20;;;;;;4939826;29;19915;-96
2023/05/05 10:22:04;;;;;;;;;;;21.60;61.30;;;;;;4940669;29;20005;-96
2023/05/05 10:24:39;;;;;;;;;;;21.60;61.30;;;;;;4957782;29;19921;-96
2023/05/05 10:27:25;;;;;;;;;;;21.80;65.10;;;;;;4940152;29;19958;-96
2023/05/05 10:30:07;;;;;;;;;;;21.80;65.00;;;;;;4940701;29;20263;-96
2023/05/05 10:32:45;;;;;;;;;;;21.90;64.60;;;;;;4940622;29;19950;-96
2023/05/05 10:35:14;;;;;;;;;;;22.00;62.20;;;;;;4940460;29;19911;-97
2023/05/05 10:37:44;;;;;;;;;;;22.00;65.90;;;;;;4940566;29;19915;-96
2023/05/05 10:40:12;;;;;;;;;;;22.10;62.10;;;;;;4939816;29;19910;-96
2023/05/05 10:42:45;;;;;;;;;;;22.30;61.20;;;;;;4940573;29;19910;-96
2023/05/05 10:45:17;;;;;;;;;;;22.30;62.70;;;;;;4940611;29;19907;-96
2023/05/05 10:47:53;;;;;;;;;;;22.30;61.20;;;;;;4940745;29;19942;-96
2023/05/05 10:50:20;;;;;;;;;;;22.50;61.90;;;;;;4940227;29;19918;-96
2023/05/05 10:53:08;;;;;;;;;;;22.50;61.50;;;;;;4957688;29;19917;-96
2023/05/05 10:55:36;;;;;;;;;;;22.50;58.60;;;;;;4957363;29;19910;-96
2023/05/05 10:58:04;;;;;;;;;;;22.60;61.00;;;;;;4939717;29;19922;-96
2023/05/05 11:00:49;;;;;;;;;;;22.70;58.60;;;;;;4939851;29;19911;-96
2023/05/05 11:03:15;;;;;;;;;;;22.70;62.00;;;;;;4939770;29;19934;-96
2023/05/05 11:06:00;;;;;;;;;;;22.70;58.20;;;;;;4939716;29;19911;-96
2023/05/05 11:08:26;;;;;;;;;;;22.60;58.90;;;;;;4939385;29;19902;-96
2023/05/05 11:10:56;;;;;;;;;;;22.70;58.00;;;;;;4938791;29;19911;-96
2023/05/05 11:13:22;;;;;;;;;;;22.80;59.50;;;;;;4940416;29;19915;-96
2023/05/05 11:15:55;;;;;;;;;;;22.90;64.40;;;;;;4956174;29;19910;-96
2023/05/05 11:18:37;;;;;;;;;;;23.10;60.70;;;;;;4938787;29;20017;-96
2023/05/05 11:21:14;;;;;;;;;;;23.10;56.50;;;;;;4936963;29;19911;-96
2023/05/05 11:23:41;;;;;;;;;;;23.10;59.50;;;;;;4935094;29;19955;-96
2023/05/05 11:26:08;;;;;;;;;;;23.00;55.60;;;;;;4938079;29;19917;-96
2023/05/05 11:28:34;;;;;;;;;;;23.10;57.20;;;;;;4954143;29;19975;-96
2023/05/05 11:31:02;;;;;;;;;;;23.20;58.00;;;;;;4938198;29;20017;-96
2023/05/05 11:33:33;;;;;;;;;;;23.30;60.50;;;;;;4938215;29;19911;-96
2023/05/05 11:36:00;;;;;;;;;;;23.30;56.30;;;;;;4937909;29;19970;-96
2023/05/05 11:38:37;;;;;;;;;;;23.30;58.20;;;;;;4955313;29;19975;-96
2023/05/05 11:41:09;;;;;;;;;;;23.20;60.00;;;;;;4937447;29;19970;-96
2023/05/05 11:43:42;;;;;;;;;;;23.20;61.50;;;;;;4954813;29;19935;-96
2023/05/05 11:46:11;;;;;;;;;;;23.20;56.90;;;;;;4958375;29;19918;-96
2023/05/05 11:48:50;;;;;;;;;;;23.40;58.80;;;;;;4941611;29;19911;-96
2023/05/05 11:51:21;;;;;;;;;;;23.50;58.40;;;;;;4942561;29;19931;-96
2023/05/05 11:53:48;;;;;;;;;;;23.70;59.40;;;;;;4944381;29;19919;-96
2023/05/05 11:56:31;;;;;;;;;;;23.80;57.60;;;;;;4962009;29;19894;-96
2023/05/05 11:59:21;;;;;;;;;;;24.00;56.60;;;;;;4946290;29;19918;-96
2023/05/05 12:01:52;;;;;;;;;;;24.30;58.90;;;;;;4946074;29;19895;-96
2023/05/05 12:04:24;;;;;;;;;;;24.40;55.10;;;;;;4944249;29;19895;-96
2023/05/05 12:06:54;;;;;;;;;;;24.50;58.80;;;;;;4943524;29;19910;-97
2023/05/05 12:09:23;;;;;;;;;;;24.60;54.30;;;;;;4943422;29;19978;-96
2023/05/05 12:11:56;;;;;;;;;;;24.70;55.60;;;;;;4943716;29;19915;-96
2023/05/05 12:14:26;;;;;;;;;;;24.90;52.20;;;;;;4943619;29;19911;-96
2023/05/05 12:17:09;;;;;;;;;;;25.10;54.40;;;;;;4943521;29;19930;-96
2023/05/05 12:19:49;;;;;;;;;;;25.00;52.70;;;;;;4944972;29;19915;-96
2023/05/05 12:31:59;;;;;;;;;;;25.80;53.30;;;;;;3491906;23;20330;-96
2023/05/05 12:34:31;;;;;;;;;;;26.00;52.50;;;;;;4940260;29;19934;-97
2023/05/05 12:37:03;;;;;;;;;;;25.90;54.60;;;;;;4944985;29;20559;-96
2023/05/05 12:39:41;;;;;;;;;;;25.90;54.30;;;;;;4943028;29;19902;-96
2023/05/05 12:42:18;;;;;;;;;;;25.70;52.80;;;;;;4928050;29;19926;-96
2023/05/05 12:44:49;;;;;;;;;;;25.70;52.30;;;;;;4930290;29;19895;-96
2023/05/05 12:47:42;;;;;;;;;;;26.00;49.90;;;;;;4923747;29;19911;-96
2023/05/05 12:50:11;;;;;;;;;;;26.30;51.30;;;;;;4939210;29;19974;-96
2023/05/05 12:52:42;;;;;;;;;;;26.40;49.30;;;;;;4924754;29;19967;-96
2023/05/05 12:55:18;;;;;;;;;;;27.00;48.40;;;;;;4926126;29;19895;-96
2023/05/05 13:03:04;;;;;;;;;;;28.70;47.40;;;;;;5392288;23;19926;-96
2023/05/05 13:05:40;;;;;;;;;;;28.70;47.30;;;;;;4978681;29;19950;-96
2023/05/05 13:08:13;;;;;;;;;;;28.50;45.40;;;;;;4962180;28;19901;-96
2023/05/05 14:11:15;;;;;;;;;;;29.50;41.80;;;;;;5321294;23;20001;-96
2023/05/05 16:24:55;;;;;;;;;;;25.90;49.00;;;;;;5527240;23;19976;-96
2023/05/05 16:27:21;;;;;;;;;;;25.90;49.30;;;;;;4961796;29;19899;-96
2023/05/05 16:29:49;;;;;;;;;;;26.00;49.60;;;;;;4960902;29;19911;-96
2023/05/05 16:32:16;;;;;;;;;;;26.20;50.60;;;;;;4958105;29;19966;-96
2023/05/05 16:34:48;;;;;;;;;;;26.30;49.00;;;;;;4926483;29;19915;-96
2023/05/05 16:37:17;;;;;;;;;;;26.30;50.00;;;;;;4942455;29;19934;-96
2023/05/05 16:39:46;;;;;;;;;;;26.40;48.50;;;;;;4943261;29;19921;-96
2023/05/05 16:42:13;;;;;;;;;;;26.30;45.30;;;;;;4943069;29;19974;-96
2023/05/05 16:44:41;;;;;;;;;;;26.30;46.10;;;;;;4943398;29;19938;-96
2023/05/05 16:47:09;;;;;;;;;;;26.20;47.40;;;;;;4927376;29;19996;-96
2023/05/05 16:49:38;;;;;;;;;;;26.00;49.30;;;;;;4943302;29;19918;-96
2023/05/05 16:52:13;;;;;;;;;;;25.90;47.50;;;;;;4960258;29;19978;-96
2023/05/05 16:54:40;;;;;;;;;;;25.80;48.50;;;;;;4942778;29;19910;-96
2023/05/05 16:57:09;;;;;;;;;;;25.70;51.10;;;;;;4942213;29;20421;-96
2023/05/05 16:59:40;;;;;;;;;;;25.50;48.80;;;;;;4942022;29;19922;-96
2023/05/05 17:02:22;;;;;;;;;;;25.30;50.60;;;;;;4957793;29;19911;-96
2023/05/05 17:04:51;;;;;;;;;;;25.20;52.00;;;;;;4941292;29;19946;-96
2023/05/05 17:07:18;;;;;;;;;;;25.00;51.20;;;;;;4941997;29;19899;-96
2023/05/05 17:09:46;;;;;;;;;;;24.90;51.90;;;;;;4942483;29;20010;-96
2023/05/05 17:12:19;;;;;;;;;;;24.70;54.10;;;;;;4943030;29;19966;-96
2023/05/05 17:14:50;;;;;;;;;;;24.70;54.50;;;;;;4942776;29;19958;-96
2023/05/05 17:17:21;;;;;;;;;;;24.50;54.00;;;;;;4943588;29;19918;-96
2023/05/05 17:19:49;;;;;;;;;;;24.40;55.00;;;;;;4942288;29;19915;-96
2023/05/05 17:22:18;;;;;;;;;;;24.30;55.10;;;;;;4941808;29;19963;-96
2023/05/05 17:24:48;;;;;;;;;;;24.30;55.90;;;;;;4941217;29;19950;-96
2023/05/05 17:27:20;;;;;;;;;;;24.20;54.50;;;;;;4941641;29;19911;-96
2023/05/05 17:29:50;;;;;;;;;;;24.10;55.40;;;;;;4941642;29;19918;-96
2023/05/05 17:32:17;;;;;;;;;;;24.00;56.00;;;;;;4958136;29;19911;-96
2023/05/05 17:34:47;;;;;;;;;;;24.00;56.70;;;;;;4942050;29;19911;-96
2023/05/05 17:37:14;;;;;;;;;;;23.90;57.60;;;;;;4941343;29;19911;-96
2023/05/05 17:39:40;;;;;;;;;;;23.80;57.60;;;;;;4941427;29;19915;-96
2023/05/05 17:42:10;;;;;;;;;;;23.90;58.30;;;;;;4944680;29;19919;-96
2023/05/05 17:44:46;;;;;;;;;;;23.80;57.50;;;;;;4919078;29;19915;-96
2023/05/05 17:47:25;;;;;;;;;;;23.80;58.10;;;;;;4921903;29;19903;-96
2023/05/05 17:49:54;;;;;;;;;;;23.70;58.90;;;;;;4917724;29;19946;-96